Terminal Aerodrome Forecast
Issued by NWS Twin Cities, MN

Home | Current Version | Previous Version | Text Only | Print | Product List | Glossary On
Versions: 1 2 3 4 5 6 7 8 9 10 11 12 13 14 15 16
598
FTUS43 KMPX 270900 AAA
TAFSTC
TAF AMD
KSTC 270900Z 2709/2806 07003KT P6SM BKN090
     FM271400 15005KT P6SM BKN120
     FM271800 17010KT P6SM BKN090
     FM280500 12006KT P6SM SCT008 OVC060=

USA.gov is the U.S. government's official web portal to all federal, state and local government web resources and services.